createdAt,value
2023-03-28T00:00:06.732Z,93589.25
2023-03-28T00:01:07.446Z,93581.25
2023-03-28T00:02:04.232Z,93523.28
2023-03-28T00:03:01.284Z,93418.34
2023-03-28T00:03:58.051Z,93638.28
2023-03-28T00:04:54.844Z,93528.19
2023-03-28T00:05:51.713Z,93652.56
2023-03-28T00:06:53.519Z,93670.59
2023-03-28T00:07:54.035Z,93473.47
2023-03-28T00:08:51.283Z,93248.19
2023-03-28T00:09:49.370Z,93595.28
2023-03-28T00:10:46.273Z,93670.78
2023-03-28T00:11:43.268Z,93546.22
2023-03-28T00:12:40.183Z,93621.34
2023-03-28T00:13:38.158Z,93715.31
2023-03-28T00:14:38.804Z,93427.84
2023-03-28T00:15:40.247Z,93571.59
2023-03-28T00:16:39.549Z,93475.19
2023-03-28T00:17:36.466Z,93641.72
2023-03-28T00:18:37.655Z,93659.72
2023-03-28T00:19:34.703Z,93709.72
2023-03-28T00:20:32.102Z,93497.97
2023-03-28T00:21:32.302Z,93566.25
2023-03-28T00:22:30.845Z,93537.09
2023-03-28T00:23:29.010Z,93735.34
2023-03-28T00:24:26.450Z,93749.34
2023-03-28T00:25:23.197Z,93729.31
2023-03-28T00:26:22.523Z,93548.47
2023-03-28T00:27:19.311Z,93652.75
2023-03-28T00:28:16.317Z,93349.88
2023-03-28T00:29:20.969Z,93623.78
2023-03-28T00:30:18.077Z,93693.97
2023-03-28T00:31:15.545Z,93737.53
2023-03-28T00:32:12.421Z,93731.31
2023-03-28T00:33:09.303Z,93660.94
2023-03-28T00:34:07.128Z,93763.75
2023-03-28T00:35:04.400Z,93618.59
2023-03-28T00:36:01.650Z,93682.97
2023-03-28T00:36:58.764Z,93611.78
2023-03-28T00:37:58.011Z,93755.75
2023-03-28T00:38:59.047Z,93564.25
2023-03-28T00:39:55.800Z,93693.16
2023-03-28T00:40:55.828Z,93238.78
2023-03-28T00:41:56.226Z,93689.94
2023-03-28T00:42:54.035Z,93454.28
2023-03-28T00:43:54.264Z,93617.91
2023-03-28T00:44:58.128Z,93760.13
2023-03-28T00:46:08.279Z,93713.69
2023-03-28T00:47:17.544Z,93758.94
2023-03-28T00:48:15.477Z,93479.44
2023-03-28T00:49:22.645Z,93720.91
2023-03-28T00:50:27.426Z,93744.06
2023-03-28T00:51:30.052Z,93737.66
2023-03-28T00:52:31.597Z,93746.88
2023-03-28T00:53:28.418Z,93713.47
2023-03-28T00:54:29.588Z,93740.53
2023-03-28T00:55:35.769Z,93626.09
2023-03-28T00:56:37.039Z,93570.09
2023-03-28T00:57:34.971Z,93769.31
2023-03-28T00:58:37.629Z,93659.63
2023-03-28T00:59:38.178Z,93418.09
2023-03-28T01:00:36.651Z,93644.78
2023-03-28T01:01:34.109Z,93556.47
2023-03-28T01:02:31.082Z,93508.47
2023-03-28T01:03:34.095Z,93663.81
2023-03-28T01:04:49.636Z,93379.66
2023-03-28T01:05:47.965Z,93784.88
2023-03-28T01:06:47.899Z,93715.97
2023-03-28T01:07:51.564Z,93695.97
2023-03-28T01:08:50.876Z,93508.13
2023-03-28T01:09:49.396Z,93792.13
2023-03-28T01:10:46.378Z,93584.06
2023-03-28T01:11:45.810Z,93671.59
2023-03-28T01:12:44.116Z,93735.66
2023-03-28T01:13:47.407Z,93776.22
2023-03-28T01:14:45.647Z,93791.09
2023-03-28T01:15:44.384Z,93780.66
2023-03-28T01:16:43.039Z,93746.88
2023-03-28T01:17:41.503Z,93776.03
2023-03-28T01:18:41.329Z,93801.88
2023-03-28T01:19:59.197Z,93612.53
2023-03-28T01:21:11.834Z,93818.66
2023-03-28T01:22:12.976Z,93804.25
2023-03-28T01:23:30.003Z,93778.03
2023-03-28T01:24:35.418Z,93810.88
2023-03-28T01:25:59.190Z,93835.25
2023-03-28T01:27:08.726Z,93804.38
2023-03-28T01:28:14.476Z,93715.16
2023-03-28T01:29:27.564Z,93824.88
2023-03-28T01:30:39.590Z,93805.69
2023-03-28T01:32:14.091Z,93820.56
2023-03-28T01:33:41.611Z,93822.16
2023-03-28T01:35:09.192Z,93821.91
2023-03-28T01:36:43.453Z,93818.38
2023-03-28T01:38:04.677Z,93836.78
2023-03-28T01:39:05.340Z,93835.13
2023-03-28T01:40:23.069Z,93843.16
2023-03-28T01:41:34.514Z,93785.50
2023-03-28T01:42:47.670Z,93854.84
2023-03-28T01:43:53.473Z,93834.81
2023-03-28T01:45:08.838Z,93839.16
2023-03-28T01:46:16.118Z,93837.25
2023-03-28T01:47:18.808Z,93828.41
2023-03-28T01:49:04.940Z,93807.25
2023-03-28T01:50:25.827Z,93861.31
2023-03-28T01:51:48.240Z,93839.06
2023-03-28T01:53:06.470Z,93857.50
2023-03-28T01:54:30.800Z,93851.56
2023-03-28T01:56:09.888Z,93815.69
2023-03-28T01:57:29.936Z,93766.78
2023-03-28T01:58:52.531Z,93827.03
2023-03-28T02:00:19.621Z,93852.84
2023-03-28T02:01:26.327Z,93665.47
2023-03-28T02:03:18.695Z,93837.22
2023-03-28T02:04:21.330Z,93815.03
2023-03-28T02:05:22.499Z,93787.72
2023-03-28T02:06:22.919Z,93833.53
2023-03-28T02:07:24.828Z,93589.44
2023-03-28T02:08:24.578Z,93773.75
2023-03-28T02:09:26.397Z,93783.97
2023-03-28T02:10:28.118Z,93848.69
2023-03-28T02:11:28.396Z,93724.50
2023-03-28T02:12:36.655Z,93809.03
2023-03-28T02:13:43.378Z,93724.84
2023-03-28T02:14:43.474Z,93552.97
2023-03-28T02:15:46.944Z,93771.72
2023-03-28T02:16:50.209Z,93780.97
2023-03-28T02:17:54.217Z,93802.28
2023-03-28T02:18:56.656Z,93851.94
2023-03-28T02:20:08.803Z,93677.81
2023-03-28T02:21:10.952Z,93918.09
2023-03-28T02:22:32.776Z,93831.09
2023-03-28T02:23:44.210Z,93823.47
2023-03-28T02:24:41.476Z,93860.66
2023-03-28T02:25:39.161Z,93838.56
2023-03-28T02:26:37.204Z,93729.31
2023-03-28T02:27:39.492Z,93800.88
2023-03-28T02:28:38.583Z,93868.13
2023-03-28T02:29:39.215Z,93749.19
2023-03-28T02:30:36.382Z,93867.47
2023-03-28T02:31:33.429Z,93691.22
2023-03-28T02:32:34.032Z,93762.84
2023-03-28T02:33:33.594Z,93881.09
2023-03-28T02:34:31.690Z,93873.06
2023-03-28T02:35:55.614Z,93862.91
2023-03-28T02:37:11.414Z,93692.28
2023-03-28T02:38:26.626Z,93864.41
2023-03-28T02:39:51.436Z,93850.25
2023-03-28T02:41:11.103Z,93872.63
2023-03-28T02:42:29.631Z,93867.88
2023-03-28T02:43:29.522Z,93869.53
2023-03-28T02:44:37.235Z,93883.13
2023-03-28T02:46:17.650Z,93874.31
2023-03-28T02:47:20.482Z,93884.97
2023-03-28T02:48:35.800Z,93836.59
2023-03-28T02:49:55.963Z,93743.88
2023-03-28T02:51:04.496Z,93549.38
2023-03-28T02:52:35.497Z,93882.09
2023-03-28T02:53:57.809Z,93872.09
2023-03-28T02:55:03.539Z,93817.19
2023-03-28T02:56:37.182Z,93861.41
2023-03-28T02:57:45.710Z,93742.03
2023-03-28T02:58:55.653Z,93790.81
2023-03-28T02:59:59.806Z,93898.28
2023-03-28T03:00:57.554Z,93882.09
2023-03-28T03:01:54.835Z,93609.50
2023-03-28T03:02:52.467Z,93849.09
2023-03-28T03:03:50.178Z,93852.63
2023-03-28T03:04:47.798Z,93747.59
2023-03-28T03:05:44.615Z,93888.06
2023-03-28T03:06:42.436Z,93892.25
2023-03-28T03:07:39.914Z,93838.28
2023-03-28T03:08:36.711Z,93774.97
2023-03-28T03:09:34.598Z,93740.78
2023-03-28T03:10:31.419Z,93891.44
2023-03-28T03:11:28.892Z,93780.91
2023-03-28T03:12:26.855Z,93806.28
2023-03-28T03:13:24.119Z,93753.66
2023-03-28T03:14:21.385Z,93792.38
2023-03-28T03:15:18.202Z,93577.19
2023-03-28T03:16:15.041Z,93923.28
2023-03-28T03:17:11.845Z,93909.63
2023-03-28T03:18:08.554Z,93828.78
2023-03-28T03:19:05.719Z,93904.50
2023-03-28T03:20:06.744Z,93893.78
2023-03-28T03:21:03.958Z,93894.59
2023-03-28T03:22:01.946Z,93808.59
2023-03-28T03:23:02.627Z,93888.03
2023-03-28T03:23:59.356Z,93919.19
2023-03-28T03:25:06.548Z,93805.50
2023-03-28T03:26:03.715Z,93810.13
2023-03-28T03:27:00.547Z,93782.44
2023-03-28T03:27:57.515Z,93802.53
2023-03-28T03:28:55.269Z,93918.56
2023-03-28T03:29:52.123Z,93741.66
2023-03-28T03:30:48.905Z,93950.09
2023-03-28T03:31:46.259Z,93521.91
2023-03-28T03:32:44.262Z,93816.06
2023-03-28T03:33:44.269Z,93735.19
2023-03-28T03:34:41.554Z,93547.00
2023-03-28T03:35:38.598Z,93845.41
2023-03-28T03:36:35.402Z,93719.66
2023-03-28T03:37:32.240Z,93844.97
2023-03-28T03:38:29.026Z,93615.16
2023-03-28T03:39:25.963Z,93933.81
2023-03-28T03:40:22.752Z,93811.09
2023-03-28T03:41:19.567Z,93843.91
2023-03-28T03:42:16.872Z,93843.06
2023-03-28T03:43:13.623Z,93912.38
2023-03-28T03:44:10.362Z,93867.72
2023-03-28T03:45:07.811Z,93794.19
2023-03-28T03:46:05.074Z,93912.25
2023-03-28T03:47:02.138Z,93775.28
2023-03-28T03:47:58.938Z,93821.97
2023-03-28T03:48:55.856Z,93933.56
2023-03-28T03:49:52.768Z,93990.28
2023-03-28T03:52:03.969Z,93809.31
2023-03-28T03:53:00.984Z,93911.06
2023-03-28T03:53:58.566Z,93877.13
2023-03-28T03:54:55.372Z,93821.53
2023-03-28T03:55:52.383Z,93742.34
2023-03-28T03:56:49.210Z,93948.13
2023-03-28T03:57:46.241Z,93935.63
2023-03-28T03:58:43.080Z,93939.84
2023-03-28T03:59:39.863Z,93915.75
2023-03-28T04:00:37.761Z,93823.84
2023-03-28T04:01:34.510Z,93782.47
2023-03-28T04:02:31.558Z,93605.97
2023-03-28T04:03:28.967Z,93938.06
2023-03-28T04:04:26.218Z,93915.75
2023-03-28T04:05:23.445Z,93923.56
2023-03-28T04:06:20.335Z,93953.69
2023-03-28T04:07:17.149Z,93959.25
2023-03-28T04:08:13.923Z,93859.94
2023-03-28T04:09:10.762Z,93964.44
2023-03-28T04:10:07.978Z,93904.19
2023-03-28T04:11:05.014Z,93920.00
2023-03-28T04:12:01.816Z,93910.16
2023-03-28T04:12:58.650Z,93929.84
2023-03-28T04:13:55.587Z,93594.72
2023-03-28T04:14:52.527Z,93772.22
2023-03-28T04:15:49.450Z,93981.75
2023-03-28T04:16:46.567Z,93983.66
2023-03-28T04:17:44.272Z,93954.88
2023-03-28T04:18:45.609Z,93944.56
2023-03-28T04:19:43.893Z,93979.25
2023-03-28T04:20:41.065Z,93933.13
2023-03-28T04:21:42.879Z,93743.66
2023-03-28T04:22:45.453Z,93800.50
2023-03-28T04:23:48.357Z,93907.91
2023-03-28T04:24:45.897Z,93996.78
2023-03-28T04:25:42.660Z,93966.22
2023-03-28T04:26:39.704Z,93964.69
2023-03-28T04:27:36.480Z,93999.22
2023-03-28T04:28:33.244Z,93987.66
2023-03-28T04:29:32.839Z,93882.09
2023-03-28T04:30:29.660Z,93716.63
2023-03-28T04:31:29.598Z,93878.69
2023-03-28T04:32:26.911Z,93628.03
2023-03-28T04:33:25.283Z,93715.31
2023-03-28T04:34:25.771Z,93719.25
2023-03-28T04:35:24.308Z,93920.94
2023-03-28T04:36:22.828Z,93782.34
2023-03-28T04:37:20.258Z,93846.13
2023-03-28T04:38:20.902Z,93813.72
2023-03-28T04:39:18.266Z,93918.03
2023-03-28T04:40:17.948Z,93886.91
2023-03-28T04:41:16.889Z,93797.88
2023-03-28T04:42:15.205Z,93869.50
2023-03-28T04:43:11.928Z,93961.38
2023-03-28T04:44:08.643Z,93874.81
2023-03-28T04:45:07.134Z,93896.72
2023-03-28T04:46:04.285Z,93760.16
2023-03-28T04:47:01.170Z,93931.34
2023-03-28T04:47:57.976Z,93987.44
2023-03-28T04:48:56.574Z,94019.38
2023-03-28T04:49:54.305Z,93948.13
2023-03-28T04:50:51.213Z,94039.69
2023-03-28T04:51:48.786Z,94017.06
2023-03-28T04:52:45.933Z,94055.06
2023-03-28T04:53:42.821Z,93897.13
2023-03-28T04:54:39.604Z,93911.19
2023-03-28T04:55:36.674Z,94041.88
2023-03-28T04:56:33.466Z,94006.94
2023-03-28T04:57:30.437Z,94007.94
2023-03-28T04:58:27.219Z,93909.47
2023-03-28T04:59:24.066Z,94035.53
2023-03-28T05:00:22.366Z,94038.81
2023-03-28T05:01:19.224Z,93958.69
2023-03-28T05:02:16.059Z,94012.84
2023-03-28T05:03:22.398Z,94017.59
2023-03-28T05:04:21.428Z,94017.25
2023-03-28T05:05:18.485Z,93966.03
2023-03-28T05:06:15.452Z,94003.03
2023-03-28T05:07:12.340Z,93963.69
2023-03-28T05:08:09.141Z,93917.75
2023-03-28T05:09:06.110Z,94021.59
2023-03-28T05:10:03.509Z,94030.44
2023-03-28T05:11:00.592Z,93887.44
2023-03-28T05:11:57.518Z,94056.72
2023-03-28T05:12:54.282Z,94024.28
2023-03-28T05:13:51.665Z,93816.31
2023-03-28T05:14:48.433Z,93951.66
2023-03-28T05:15:47.215Z,94032.09
2023-03-28T05:16:44.116Z,94041.28
2023-03-28T05:17:41.166Z,93923.06
2023-03-28T05:18:37.947Z,93920.72
2023-03-28T05:19:34.794Z,94047.72
2023-03-28T05:20:33.052Z,93876.78
2023-03-28T05:21:29.884Z,94067.84
2023-03-28T05:22:26.928Z,93931.97
2023-03-28T05:23:23.793Z,94047.59
2023-03-28T05:24:20.596Z,93975.06
2023-03-28T05:25:18.964Z,94070.69
2023-03-28T05:26:16.221Z,94026.72
2023-03-28T05:27:12.984Z,93819.38
2023-03-28T05:28:10.323Z,94066.00
2023-03-28T05:29:07.135Z,94063.22
2023-03-28T05:30:07.894Z,93998.66
2023-03-28T05:31:06.621Z,94048.81
2023-03-28T05:32:03.549Z,93953.94
2023-03-28T05:33:01.021Z,94039.56
2023-03-28T05:33:57.803Z,93867.25
2023-03-28T05:34:54.545Z,94030.22
2023-03-28T05:35:51.347Z,94064.47
2023-03-28T05:36:48.141Z,93972.72
2023-03-28T05:37:47.052Z,94055.41
2023-03-28T05:38:44.058Z,94068.50
2023-03-28T05:39:41.768Z,93963.50
2023-03-28T05:40:38.628Z,93938.25
2023-03-28T05:41:35.839Z,94033.13
2023-03-28T05:42:33.636Z,94084.88
2023-03-28T05:43:30.689Z,94092.03
2023-03-28T05:44:27.628Z,93952.09
2023-03-28T05:45:24.582Z,94068.84
2023-03-28T05:46:21.450Z,93841.66
2023-03-28T05:47:19.214Z,93929.94
2023-03-28T05:48:16.216Z,93950.59
2023-03-28T05:49:13.098Z,93917.47
2023-03-28T05:50:11.177Z,93984.59
2023-03-28T05:51:07.943Z,94049.94
2023-03-28T05:52:04.881Z,94056.75
2023-03-28T05:53:01.693Z,93960.34
2023-03-28T05:53:58.502Z,94101.19
2023-03-28T05:54:58.105Z,93933.84
2023-03-28T05:55:54.886Z,93906.53
2023-03-28T05:56:51.958Z,94031.94
2023-03-28T05:57:48.752Z,94075.63
2023-03-28T05:58:45.569Z,94065.34
2023-03-28T05:59:42.874Z,94029.72
2023-03-28T06:00:46.972Z,94098.81
2023-03-28T06:01:46.315Z,94109.41
2023-03-28T06:02:43.546Z,94008.22
2023-03-28T06:03:42.715Z,93999.28
2023-03-28T06:04:39.936Z,94089.63
2023-03-28T06:05:37.932Z,94083.09
2023-03-28T06:06:34.762Z,94091.06
2023-03-28T06:07:41.873Z,93960.16
2023-03-28T06:08:39.226Z,94119.66
2023-03-28T06:09:36.213Z,93982.47
2023-03-28T06:10:33.042Z,93947.00
2023-03-28T06:11:30.016Z,94027.81
2023-03-28T06:12:26.761Z,93987.19
2023-03-28T06:13:23.516Z,94054.75
2023-03-28T06:14:20.974Z,94120.22
2023-03-28T06:15:17.866Z,94120.47
2023-03-28T06:16:14.640Z,94026.84
2023-03-28T06:17:11.494Z,94119.19
2023-03-28T06:18:08.506Z,93931.69
2023-03-28T06:19:17.085Z,94132.16
2023-03-28T06:20:15.391Z,94122.94
2023-03-28T06:21:12.346Z,94009.91
2023-03-28T06:22:09.352Z,94101.38
2023-03-28T06:23:06.141Z,94156.56
2023-03-28T06:24:02.878Z,94133.19
2023-03-28T06:24:59.750Z,94151.91
2023-03-28T06:25:56.523Z,94116.81
2023-03-28T06:26:53.302Z,93856.28
2023-03-28T06:27:50.128Z,94005.59
2023-03-28T06:28:46.869Z,94131.44
2023-03-28T06:29:43.568Z,94140.25
2023-03-28T06:30:40.526Z,94009.91
2023-03-28T06:31:37.304Z,94145.94
2023-03-28T06:32:34.167Z,93995.94
2023-03-28T06:33:30.927Z,94165.78
2023-03-28T06:34:27.793Z,93872.28
2023-03-28T06:35:24.588Z,94159.91
2023-03-28T06:36:21.845Z,93826.13
2023-03-28T06:37:18.661Z,94140.19
2023-03-28T06:38:15.437Z,94111.38
2023-03-28T06:39:12.546Z,94110.41
2023-03-28T06:40:09.969Z,94159.34
2023-03-28T06:41:06.940Z,94079.44
2023-03-28T06:42:03.998Z,94165.53
2023-03-28T06:43:00.713Z,94159.88
2023-03-28T06:43:57.508Z,93764.03
2023-03-28T06:44:54.281Z,94107.16
2023-03-28T06:45:51.702Z,93904.97
2023-03-28T06:46:48.653Z,93969.88
2023-03-28T06:47:45.929Z,94125.59
2023-03-28T06:48:42.910Z,94007.00
2023-03-28T06:49:39.687Z,93756.78
2023-03-28T06:50:36.507Z,94146.22
2023-03-28T06:51:33.661Z,94029.81
2023-03-28T06:52:30.415Z,94004.13
2023-03-28T06:53:28.154Z,94134.44
2023-03-28T06:54:25.262Z,94097.78
2023-03-28T06:55:22.826Z,94033.53
2023-03-28T06:56:19.514Z,94125.25
2023-03-28T06:57:16.727Z,94082.22
2023-03-28T06:58:13.549Z,94161.34
2023-03-28T06:59:10.336Z,94042.41
2023-03-28T07:00:08.366Z,93983.75
2023-03-28T07:01:05.672Z,94025.53
2023-03-28T07:02:02.770Z,94048.34
2023-03-28T07:02:59.775Z,94108.66
2023-03-28T07:03:59.470Z,94146.91
2023-03-28T07:04:56.575Z,94143.22
2023-03-28T07:05:53.312Z,94083.94
2023-03-28T07:06:50.280Z,94146.75
2023-03-28T07:07:47.006Z,94196.97
2023-03-28T07:08:43.867Z,94000.13
2023-03-28T07:09:40.839Z,94144.28
2023-03-28T07:10:39.477Z,94136.84
2023-03-28T07:11:36.206Z,93956.66
2023-03-28T07:12:33.052Z,94152.38
2023-03-28T07:13:29.945Z,94045.38
2023-03-28T07:14:26.922Z,94082.81
2023-03-28T07:15:23.848Z,94139.38
2023-03-28T07:16:21.045Z,94142.69
2023-03-28T07:17:17.796Z,94175.44
2023-03-28T07:18:14.736Z,94065.34
2023-03-28T07:19:11.578Z,94161.41
2023-03-28T07:20:08.661Z,94169.59
2023-03-28T07:21:07.759Z,94199.72
2023-03-28T07:22:04.835Z,94044.75
2023-03-28T07:23:01.653Z,94161.59
2023-03-28T07:23:58.412Z,94071.41
2023-03-28T07:24:55.296Z,94216.28
2023-03-28T07:25:52.021Z,94167.00
2023-03-28T07:26:48.717Z,93944.19
2023-03-28T07:27:45.477Z,94074.19
2023-03-28T07:28:42.388Z,93896.81
2023-03-28T07:29:42.376Z,94184.13
2023-03-28T07:30:39.166Z,94227.28
2023-03-28T07:31:36.197Z,94186.56
2023-03-28T07:32:42.725Z,93959.66
2023-03-28T07:33:50.239Z,94150.72
2023-03-28T07:34:47.058Z,94206.38
2023-03-28T07:35:46.795Z,94227.66
2023-03-28T07:36:43.626Z,93855.13
2023-03-28T07:37:40.508Z,94134.50
2023-03-28T07:38:38.187Z,94105.69
2023-03-28T07:39:39.846Z,94059.44
2023-03-28T07:40:36.684Z,94226.28
2023-03-28T07:41:33.676Z,94202.28
2023-03-28T07:42:30.569Z,94104.75
2023-03-28T07:43:27.350Z,94067.88
2023-03-28T07:44:24.095Z,94227.41
2023-03-28T07:45:21.014Z,93742.59
2023-03-28T07:46:21.023Z,94127.78
2023-03-28T07:47:18.318Z,94074.56
2023-03-28T07:48:15.368Z,94231.84
2023-03-28T07:49:12.970Z,94187.63
2023-03-28T07:50:10.238Z,94065.78
2023-03-28T07:51:09.806Z,94085.59
2023-03-28T07:52:06.840Z,94253.28
2023-03-28T07:53:03.714Z,94235.53
2023-03-28T07:54:01.734Z,93987.91
2023-03-28T07:54:58.472Z,94233.91
2023-03-28T07:55:56.191Z,94160.78
2023-03-28T07:56:53.555Z,94056.72
2023-03-28T07:57:50.518Z,94177.38
2023-03-28T07:58:48.452Z,94214.91
2023-03-28T07:59:45.766Z,94102.09
2023-03-28T08:00:43.198Z,94255.34
2023-03-28T08:01:44.750Z,94201.81
2023-03-28T08:02:45.130Z,94113.72
2023-03-28T08:03:42.925Z,93990.28
2023-03-28T08:04:39.937Z,94109.78
2023-03-28T08:05:37.856Z,94261.91
2023-03-28T08:06:38.377Z,94245.66
2023-03-28T08:07:36.675Z,94190.94
2023-03-28T08:08:33.667Z,94109.97
2023-03-28T08:09:30.457Z,94220.84
2023-03-28T08:10:27.187Z,94274.28
2023-03-28T08:11:24.065Z,94092.72
2023-03-28T08:12:21.466Z,94073.69
2023-03-28T08:13:21.120Z,94232.19
2023-03-28T08:14:19.177Z,94115.69
2023-03-28T08:15:15.995Z,94183.91
2023-03-28T08:16:12.835Z,93893.16
2023-03-28T08:17:10.677Z,94033.59
2023-03-28T08:18:07.599Z,94128.50
2023-03-28T08:19:11.145Z,94202.78
2023-03-28T08:20:10.963Z,94260.72
2023-03-28T08:21:08.183Z,93980.25
2023-03-28T08:22:07.787Z,94160.28
2023-03-28T08:23:04.683Z,94012.03
2023-03-28T08:24:02.759Z,94183.94
2023-03-28T08:25:07.737Z,94115.22
2023-03-28T08:26:07.397Z,94110.88
2023-03-28T08:27:04.881Z,94290.81
2023-03-28T08:28:01.631Z,94288.59
2023-03-28T08:29:05.820Z,94304.13
2023-03-28T08:30:02.642Z,93888.97
2023-03-28T08:30:59.666Z,94121.13
2023-03-28T08:31:57.664Z,94255.25
2023-03-28T08:32:54.541Z,94225.06
2023-03-28T08:33:53.145Z,94275.06
2023-03-28T08:34:49.893Z,94217.00
2023-03-28T08:35:46.805Z,94291.69
2023-03-28T08:36:43.705Z,93893.97
2023-03-28T08:37:40.454Z,94206.84
2023-03-28T08:38:37.315Z,94293.47
2023-03-28T08:39:34.864Z,94283.75
2023-03-28T08:40:33.529Z,94215.53
2023-03-28T08:41:51.822Z,94332.56
2023-03-28T08:43:14.803Z,94307.50
2023-03-28T08:44:31.675Z,94294.06
2023-03-28T08:45:42.339Z,94272.84
2023-03-28T08:46:54.855Z,94302.44
2023-03-28T08:48:00.732Z,94305.66
2023-03-28T08:49:09.737Z,94260.94
2023-03-28T08:50:18.129Z,94305.28
2023-03-28T08:51:20.416Z,94309.00
2023-03-28T08:52:20.505Z,94151.63
2023-03-28T08:53:37.330Z,93950.53
2023-03-28T08:54:49.692Z,94309.53
2023-03-28T08:55:49.409Z,94288.31
2023-03-28T08:56:53.408Z,94197.34
2023-03-28T08:57:55.925Z,94270.38
2023-03-28T08:59:12.874Z,94255.56
2023-03-28T09:00:28.078Z,94123.78
2023-03-28T09:01:29.696Z,94264.91
2023-03-28T09:02:29.875Z,94175.06
2023-03-28T09:03:26.881Z,94315.19
2023-03-28T09:04:35.396Z,94314.56
2023-03-28T09:05:49.860Z,94163.44
2023-03-28T09:06:52.807Z,94309.72
2023-03-28T09:08:31.388Z,94319.84
2023-03-28T09:09:45.801Z,94154.84
2023-03-28T09:10:56.552Z,94275.81
2023-03-28T09:12:24.206Z,94323.44
2023-03-28T09:13:36.298Z,94173.41
2023-03-28T09:15:20.236Z,94326.34
2023-03-28T09:16:35.370Z,94188.16
2023-03-28T09:17:47.280Z,94347.75
2023-03-28T09:19:21.219Z,94332.28
2023-03-28T09:21:03.640Z,94298.44
2023-03-28T09:22:17.246Z,94203.25
2023-03-28T09:23:44.110Z,94248.56
2023-03-28T09:24:58.309Z,94316.22
2023-03-28T09:26:15.020Z,94151.69
2023-03-28T09:27:20.151Z,94312.19
2023-03-28T09:28:34.610Z,94290.97
2023-03-28T09:29:36.755Z,94213.63
2023-03-28T09:30:41.895Z,94325.41
2023-03-28T09:31:46.249Z,94158.19
2023-03-28T09:32:44.026Z,94272.44
2023-03-28T09:33:47.254Z,94334.09
2023-03-28T09:34:50.392Z,94195.38
2023-03-28T09:35:50.545Z,94187.06
2023-03-28T09:36:55.531Z,94312.59
2023-03-28T09:38:05.043Z,94324.59
2023-03-28T09:39:11.818Z,94283.38
2023-03-28T09:40:29.192Z,94355.53
2023-03-28T09:41:40.994Z,94329.34
2023-03-28T09:42:46.770Z,94178.66
2023-03-28T09:43:56.710Z,94283.84
2023-03-28T09:45:03.636Z,94335.72
2023-03-28T09:46:06.372Z,94287.19
2023-03-28T09:47:12.340Z,94210.31
2023-03-28T09:48:21.030Z,94304.00
2023-03-28T09:49:21.587Z,94185.34
2023-03-28T09:50:20.422Z,93977.00
2023-03-28T09:51:19.881Z,94274.31
2023-03-28T09:52:21.119Z,94289.91
2023-03-28T09:53:26.257Z,94325.31
2023-03-28T09:54:33.793Z,94160.59
2023-03-28T09:55:31.265Z,94252.31
2023-03-28T09:56:34.121Z,94313.19
2023-03-28T09:58:05.851Z,94335.09
2023-03-28T09:59:05.297Z,94320.97
2023-03-28T10:00:07.405Z,94314.16
2023-03-28T10:01:05.430Z,94076.78
2023-03-28T10:02:04.148Z,94121.78
2023-03-28T10:03:01.067Z,94085.84
2023-03-28T10:03:58.208Z,94109.53
2023-03-28T10:04:55.482Z,94300.00
2023-03-28T10:05:52.811Z,94230.06
2023-03-28T10:06:49.643Z,94218.47
2023-03-28T10:07:46.503Z,94342.59
2023-03-28T10:08:43.263Z,94015.88
2023-03-28T10:09:51.948Z,93945.53
2023-03-28T10:11:15.123Z,94326.38
2023-03-28T10:12:38.548Z,94220.66
2023-03-28T10:13:47.257Z,94331.50
2023-03-28T10:14:47.498Z,94200.53
2023-03-28T10:15:50.134Z,94263.78
2023-03-28T10:16:47.730Z,94294.16
2023-03-28T10:17:44.887Z,94256.75
2023-03-28T10:18:43.230Z,94320.47
2023-03-28T10:19:44.046Z,94143.75
2023-03-28T10:20:41.542Z,94203.56
2023-03-28T10:21:38.426Z,94327.81
2023-03-28T10:22:37.948Z,94308.03
2023-03-28T10:23:37.467Z,94243.09
2023-03-28T10:24:35.170Z,94327.59
2023-03-28T10:25:44.611Z,94316.06
2023-03-28T10:26:41.767Z,94243.63
2023-03-28T10:27:40.289Z,94294.81
2023-03-28T10:28:37.733Z,94276.91
2023-03-28T10:29:37.188Z,94320.59
2023-03-28T10:30:37.617Z,94327.66
2023-03-28T10:31:35.015Z,94353.94
2023-03-28T10:32:32.323Z,94221.25
2023-03-28T10:33:42.122Z,94192.66
2023-03-28T10:34:39.364Z,94210.44
2023-03-28T10:35:41.467Z,94354.03
2023-03-28T10:36:42.948Z,94314.53
2023-03-28T10:37:43.129Z,94374.59
2023-03-28T10:38:43.396Z,94392.09
2023-03-28T10:39:40.496Z,94371.25
2023-03-28T10:40:37.259Z,94277.91
2023-03-28T10:41:34.039Z,94356.53
2023-03-28T10:42:42.887Z,94229.03
2023-03-28T10:43:42.213Z,94372.97
2023-03-28T10:44:40.683Z,94190.50
2023-03-28T10:45:47.004Z,94313.63
2023-03-28T10:46:43.803Z,94365.72
2023-03-28T10:47:41.926Z,94369.28
2023-03-28T10:48:41.805Z,94208.13
2023-03-28T10:49:48.065Z,94379.56
2023-03-28T10:50:49.255Z,94382.16
2023-03-28T10:51:46.374Z,94255.38
2023-03-28T10:53:02.844Z,94328.53
2023-03-28T10:54:14.528Z,94377.19
2023-03-28T10:55:23.441Z,94374.84
2023-03-28T10:56:42.304Z,94226.22
2023-03-28T10:58:13.694Z,94276.47
2023-03-28T10:59:10.600Z,94375.56
2023-03-28T11:00:22.681Z,94209.63
2023-03-28T11:01:22.222Z,94078.97
2023-03-28T11:02:41.063Z,94389.81
2023-03-28T11:04:05.826Z,94388.31
2023-03-28T11:05:27.982Z,94381.66
2023-03-28T11:07:09.121Z,94374.88
2023-03-28T11:08:33.423Z,94386.84
2023-03-28T11:09:47.551Z,94398.63
2023-03-28T11:10:50.252Z,94391.84
2023-03-28T11:12:10.216Z,94403.41
2023-03-28T11:13:12.294Z,94391.41
2023-03-28T11:14:27.165Z,94426.25
2023-03-28T11:15:38.878Z,94399.91
2023-03-28T11:17:01.476Z,94332.63
2023-03-28T11:17:58.268Z,94403.69
2023-03-28T11:19:28.753Z,94371.72
2023-03-28T11:20:32.815Z,94380.69
2023-03-28T11:22:07.988Z,94366.91
2023-03-28T11:23:23.106Z,94384.34
2023-03-28T11:24:31.155Z,94384.84
2023-03-28T11:25:37.057Z,94242.13
2023-03-28T11:26:42.761Z,94382.72
2023-03-28T11:27:42.169Z,94402.75
2023-03-28T11:28:52.709Z,94393.34
2023-03-28T11:29:59.019Z,94302.41
2023-03-28T11:31:00.397Z,94262.88
2023-03-28T11:32:29.786Z,94381.66
2023-03-28T11:33:52.926Z,94208.78
2023-03-28T11:35:07.092Z,94404.16
2023-03-28T11:36:37.987Z,94238.31
2023-03-28T11:37:49.616Z,94371.88
2023-03-28T11:39:06.376Z,94374.06
2023-03-28T11:40:15.304Z,94332.41
2023-03-28T11:41:17.355Z,94392.28
2023-03-28T11:42:54.147Z,94392.88
2023-03-28T11:44:05.601Z,94274.78
2023-03-28T11:45:49.460Z,94301.31
2023-03-28T11:47:03.313Z,94243.00
2023-03-28T11:48:20.304Z,94366.66
2023-03-28T11:49:17.033Z,94382.84
2023-03-28T11:50:15.112Z,94382.50
2023-03-28T11:51:32.406Z,94376.03
2023-03-28T11:52:39.785Z,94252.44
2023-03-28T11:53:47.544Z,94356.84
2023-03-28T11:54:52.814Z,94203.38
2023-03-28T11:56:00.358Z,94325.91
2023-03-28T11:57:03.822Z,94345.69
2023-03-28T11:58:15.318Z,94379.50
2023-03-28T11:59:38.627Z,94331.69
2023-03-28T12:00:46.264Z,94202.59
2023-03-28T12:01:50.647Z,94319.50
2023-03-28T12:02:55.262Z,94230.81
2023-03-28T12:04:01.526Z,94383.38
2023-03-28T12:05:02.709Z,94340.13
2023-03-28T12:06:12.552Z,94262.78
2023-03-28T12:07:18.269Z,94384.31
2023-03-28T12:08:30.145Z,94242.31
2023-03-28T12:09:36.619Z,94355.13
2023-03-28T12:10:36.680Z,94372.88
2023-03-28T12:11:40.432Z,94198.16
2023-03-28T12:12:55.858Z,94319.84
2023-03-28T12:14:12.519Z,94300.28
2023-03-28T12:15:26.345Z,94252.50